Time;durP1;ratioP1;P1;durP2;ratioP2;P2;SDS_P1;SDS_P2;PMS_P1;PMS_P2;Temp;Humidity;BMP_temperature;BMP_pressure;BME280_temperature;BME280_humidity;BME280_pressure;Samples;Min_cycle;Max_cycle;Signal;HPM_P1;HPM_P2
2022/05/28 00:01:35;;;;;;;1.6;1;;;;;;;13.8;84.70313;940.7802;;;;
2022/05/28 00:04:04;;;;;;;1.8;1.1;;;;;;;;;;;;;
2022/05/28 00:06:28;;;;;;;1.3;0.8;;;;;;;;;;;;;
2022/05/28 00:08:56;;;;;;;6.6;1.1;;;;;;;;;;;;;
2022/05/28 00:11:21;;;;;;;0.8;0.8;;;;;;;;;;;;;
2022/05/28 00:13:46;;;;;;;1.1;1;;;;;;;;;;;;;
2022/05/28 00:16:11;;;;;;;1.2;0.8;;;;;;;;;;;;;
2022/05/28 00:18:39;;;;;;;0.8;0.8;;;;;;;;;;;;;
2022/05/28 00:21:02;;;;;;;0.8;0.8;;;;;;;;;;;;;
2022/05/28 00:23:28;;;;;;;1;0.9;;;;;;;;;;;;;
2022/05/28 00:25:52;;;;;;;1.1;0.7;;;;;;;;;;;;;
2022/05/28 00:28:21;;;;;;;1.1;0.8;;;;;;;;;;;;;
2022/05/28 00:30:44;;;;;;;0.8;0.8;;;;;;;;;;;;;
2022/05/28 00:33:11;;;;;;;0.9;0.8;;;;;;;;;;;;;
2022/05/28 00:35:36;;;;;;;2.1;1.1;;;;;;;;;;;;;
2022/05/28 00:38:01;;;;;;;1.2;1.1;;;;;;;;;;;;;
2022/05/28 00:40:26;;;;;;;1.9;1.2;;;;;;;;;;;;;
2022/05/28 00:42:52;;;;;;;1.2;1.1;;;;;;;;;;;;;
2022/05/28 00:45:17;;;;;;;1.2;1.1;;;;;;;;;;;;;
2022/05/28 00:47:42;;;;;;;1.3;1.2;;;;;;;;;;;;;
2022/05/28 00:50:09;;;;;;;1.9;1.1;;;;;;;;;;;;;
2022/05/28 00:52:35;;;;;;;1.5;1.3;;;;;;;;;;;;;
2022/05/28 00:54:59;;;;;;;1.4;1.1;;;;;;;;;;;;;
2022/05/28 00:57:25;;;;;;;1;1;;;;;;;;;;;;;
2022/05/28 00:59:50;;;;;;;1.6;1.2;;;;;;;;;;;;;
2022/05/28 01:02:15;;;;;;;1.8;1.1;;;;;;;;;;;;;
2022/05/28 01:04:42;;;;;;;1.5;1;;;;;;;;;;;;;
2022/05/28 01:07:06;;;;;;;1.3;1.1;;;;;;;;;;;;;
2022/05/28 01:09:32;;;;;;;1.2;1.1;;;;;;;;;;;;;
2022/05/28 01:11:57;;;;;;;1.5;0.9;;;;;;;;;;;;;
2022/05/28 01:14:22;;;;;;;1.3;1.2;;;;;;;;;;;;;
2022/05/28 01:16:47;;;;;;;0.8;0.8;;;;;;;;;;;;;
2022/05/28 01:19:13;;;;;;;1.3;0.9;;;;;;;;;;;;;
2022/05/28 01:21:40;;;;;;;1.7;1.2;;;;;;;;;;;;;
2022/05/28 01:24:05;;;;;;;1.1;1;;;;;;;;;;;;;
2022/05/28 01:26:31;;;;;;;1.2;0.8;;;;;;;;;;;;;
2022/05/28 01:28:55;;;;;;;1.9;0.9;;;;;;;;;;;;;
2022/05/28 01:31:23;;;;;;;1.1;1;;;;;;;;;;;;;
2022/05/28 01:33:48;;;;;;;1.1;1;;;;;;;;;;;;;
2022/05/28 01:36:14;;;;;;;1.3;1.2;;;;;;;;;;;;;
2022/05/28 01:38:39;;;;;;;1.3;1.2;;;;;;;;;;;;;
2022/05/28 01:41:06;;;;;;;1.3;1.1;;;;;;;;;;;;;
2022/05/28 01:43:33;;;;;;;2.2;1.2;;;;;;;;;;;;;
2022/05/28 01:45:57;;;;;;;1.5;1.2;;;;;;;;;;;;;
2022/05/28 01:48:22;;;;;;;1.4;1.3;;;;;;;;;;;;;
2022/05/28 01:50:50;;;;;;;1.6;1.2;;;;;;;;;;;;;
2022/05/28 01:54:06;;;;;;;1.4;1.3;;;;;;;;;;;;;
2022/05/28 01:55:40;;;;;;;2.3;1.5;;;;;;;;;;;;;
2022/05/28 01:58:05;;;;;;;1.9;1.3;;;;;;;;;;;;;
2022/05/28 02:00:30;;;;;;;2.4;1.9;;;;;;;;;;;;;
2022/05/28 02:02:58;;;;;;;2.3;2;;;;;;;;;;;;;
2022/05/28 02:05:23;;;;;;;4.6;2.7;;;;;;;;;;;;;
2022/05/28 02:07:48;;;;;;;5.3;3.4;;;;;;;;;;;;;
2022/05/28 02:10:14;;;;;;;3.7;2.7;;;;;;;;;;;;;
2022/05/28 02:12:40;;;;;;;3.7;2.5;;;;;;;;;;;;;
2022/05/28 02:15:05;;;;;;;3.2;2.1;;;;;;;;;;;;;
2022/05/28 02:17:30;;;;;;;4.2;2.3;;;;;;;;;;;;;
2022/05/28 02:19:56;;;;;;;2.7;1.9;;;;;;;;;;;;;
2022/05/28 02:22:21;;;;;;;3;2.1;;;;;;;;;;;;;
2022/05/28 02:24:47;;;;;;;2.1;1.6;;;;;;;;;;;;;
2022/05/28 02:27:12;;;;;;;2.2;1.6;;;;;;;;;;;;;
2022/05/28 02:29:37;;;;;;;1.4;1.3;;;;;;;;;;;;;
2022/05/28 02:32:03;;;;;;;1.8;1.5;;;;;;;;;;;;;
2022/05/28 02:34:28;;;;;;;2.8;1.9;;;;;;;;;;;;;
2022/05/28 02:36:55;;;;;;;1.7;1.5;;;;;;;;;;;;;
2022/05/28 02:39:19;;;;;;;2.1;1.6;;;;;;;;;;;;;
2022/05/28 02:41:45;;;;;;;1.8;1.6;;;;;;;;;;;;;
2022/05/28 02:44:13;;;;;;;2;1.6;;;;;;;;;;;;;
2022/05/28 02:46:35;;;;;;;1.8;1.6;;;;;;;;;;;;;
2022/05/28 02:49:01;;;;;;;1.6;1.5;;;;;;;;;;;;;
2022/05/28 02:51:26;;;;;;;1.7;1.6;;;;;;;;;;;;;
2022/05/28 02:53:51;;;;;;;2.5;1.8;;;;;;;;;;;;;
2022/05/28 02:56:16;;;;;;;1.5;1.4;;;;;;;;;;;;;
2022/05/28 02:58:42;;;;;;;3.3;1.2;;;;;;;;;;;;;
2022/05/28 03:01:07;;;;;;;3;1.6;;;;;;;;;;;;;
2022/05/28 03:03:34;;;;;;;1.6;1.4;;;;;;;;;;;;;
2022/05/28 03:05:59;;;;;;;1.7;1.6;;;;;;;;;;;;;
2022/05/28 03:08:25;;;;;;;1.5;1.4;;;;;;;;;;;;;
2022/05/28 03:10:50;;;;;;;1.5;1.4;;;;;;;;;;;;;
2022/05/28 03:13:16;;;;;;;1.7;1.5;;;;;;;;;;;;;
2022/05/28 03:15:40;;;;;;;1.6;1.4;;;;;;;;;;;;;
2022/05/28 03:18:06;;;;;;;1.3;1.2;;;;;;;;;;;;;
2022/05/28 03:20:31;;;;;;;2.2;1.5;;;;;;;;;;;;;
2022/05/28 03:22:58;;;;;;;1.4;1.3;;;;;;;;;;;;;
2022/05/28 03:25:23;;;;;;;3;1.4;;;;;;;;;;;;;
2022/05/28 03:27:49;;;;;;;1.4;1.3;;;;;;;;;;;;;
2022/05/28 03:30:14;;;;;;;1.5;1.4;;;;;;;;;;;;;
2022/05/28 03:32:40;;;;;;;1.5;1.4;;;;;;;;;;;;;
2022/05/28 03:35:05;;;;;;;2;1.7;;;;;;;;;;;;;
2022/05/28 03:37:33;;;;;;;2.9;1.6;;;;;;;;;;;;;
2022/05/28 03:39:58;;;;;;;2;1.6;;;;;;;;;;;;;
2022/05/28 03:42:25;;;;;;;1.7;1.6;;;;;;;;;;;;;
2022/05/28 03:44:50;;;;;;;2.8;2;;;;;;;;;;;;;
2022/05/28 03:47:16;;;;;;;2.1;1.5;;;;;;;;;;;;;
2022/05/28 03:49:41;;;;;;;1.7;1.5;;;;;;;;;;;;;
2022/05/28 03:52:07;;;;;;;1.6;1.5;;;;;;;;;;;;;
2022/05/28 03:54:32;;;;;;;1.8;1.4;;;;;;;;;;;;;
2022/05/28 03:56:59;;;;;;;1.9;1.4;;;;;;;;;;;;;
2022/05/28 03:59:24;;;;;;;1.6;1.5;;;;;;;;;;;;;
2022/05/28 04:02:32;;;;;;;1.6;1.4;;;;;;;13.2;92.19238;939.8889;;;;
2022/05/28 04:04:57;;;;;;;3.5;1.8;;;;;;;13.21;92.69824;939.9201;;;;
2022/05/28 04:07:22;;;;;;;2.8;2;;;;;;;13.23;91.92188;939.7709;;;;
2022/05/28 04:09:54;;;;;;;2.3;1.8;;;;;;;13.21;92.14844;939.8692;;;;
2022/05/28 04:12:19;;;;;;;3.3;1.7;;;;;;;13.22;91.15039;939.8109;;;;
2022/05/28 04:14:46;;;;;;;1.8;1.7;;;;;;;13.02;91.41699;939.8563;;;;
2022/05/28 04:17:13;;;;;;;2.8;2;;;;;;;13.01;91.21094;939.845;;;;
2022/05/28 04:19:38;;;;;;;2.8;2;;;;;;;13.1;91.88184;939.8524;;;;
2022/05/28 04:22:03;;;;;;;3;2.2;;;;;;;13.13;91.39551;939.8445;;;;
2022/05/28 04:24:31;;;;;;;3.4;2.2;;;;;;;13.22;91.40332;939.7925;;;;
2022/05/28 04:26:56;;;;;;;2.4;1.9;;;;;;;13.33;90.36914;939.7662;;;;
2022/05/28 04:29:21;;;;;;;3.5;1.9;;;;;;;13.07;89.3291;939.762;;;;
2022/05/28 04:31:47;;;;;;;1.7;1.6;;;;;;;13.17;90.37012;939.8102;;;;
2022/05/28 04:34:12;;;;;;;2.5;2.3;;;;;;;13.23;90.42871;939.8412;;;;
2022/05/28 04:36:40;;;;;;;2.7;2.1;;;;;;;13.25;89.78906;939.7981;;;;
2022/05/28 04:39:10;;;;;;;2.4;1.7;;;;;;;13.32;89.35352;939.7926;;;;
2022/05/28 04:41:35;;;;;;;2.1;1.8;;;;;;;13.38;89.16016;939.8455;;;;
2022/05/28 04:44:04;;;;;;;2;1.6;;;;;;;13.37;89.27344;939.8527;;;;
2022/05/28 04:46:35;;;;;;;2.2;2;;;;;;;13.43;88.82617;939.8035;;;;
2022/05/28 04:49:07;;;;;;;1.7;1.6;;;;;;;13.5;88.51758;939.7642;;;;
2022/05/28 04:51:36;;;;;;;2;1.8;;;;;;;13.38;89.36719;939.8894;;;;
2022/05/28 04:54:01;;;;;;;4.4;2.3;;;;;;;13.39;88.64453;939.8447;;;;
2022/05/28 04:56:32;;;;;;;2.1;1.6;;;;;;;13.38;88.90918;939.863;;;;
2022/05/28 04:58:58;;;;;;;2.3;2.1;;;;;;;13.36;89.53613;939.9182;;;;
2022/05/28 05:01:23;;;;;;;2.6;2.2;;;;;;;13.35;89.04004;939.8566;;;;
2022/05/28 05:03:48;;;;;;;2.7;1.9;;;;;;;13.33;89.52832;939.9062;;;;
2022/05/28 05:06:14;;;;;;;2.3;1.9;;;;;;;13.17;89.94629;939.9357;;;;
2022/05/28 05:08:40;;;;;;;2.3;2.1;;;;;;;13.28;90.35742;939.9013;;;;
2022/05/28 05:11:06;;;;;;;2.3;1.9;;;;;;;13.32;90.60645;939.9309;;;;
2022/05/28 05:13:31;;;;;;;2.2;2;;;;;;;13.34;90.21973;939.8742;;;;
2022/05/28 05:16:03;;;;;;;2.8;2;;;;;;;13.39;89.66992;939.8814;;;;
2022/05/28 05:18:26;;;;;;;3.1;2.3;;;;;;;13.41;90.0752;939.7623;;;;
2022/05/28 05:20:53;;;;;;;2.3;1.9;;;;;;;13.4;89.58887;939.7711;;;;
2022/05/28 05:23:26;;;;;;;2.4;1.9;;;;;;;13.43;89.99902;939.8074;;;;
2022/05/28 05:25:44;;;;;;;3.5;1.8;;;;;;;13.47;89.94727;939.8226;;;;
2022/05/28 05:28:09;;;;;;;3.1;2.1;;;;;;;13.36;89.94922;939.8359;;;;
2022/05/28 05:30:39;;;;;;;3.6;2.1;;;;;;;13.13;89.36133;939.8469;;;;
2022/05/28 05:33:04;;;;;;;2.1;1.9;;;;;;;13.3;89.94824;939.8494;;;;
2022/05/28 05:35:34;;;;;;;2.2;2;;;;;;;13.34;88.90918;939.7902;;;;
2022/05/28 05:38:05;;;;;;;2.8;1.9;;;;;;;13.45;90.15039;939.7586;;;;
2022/05/28 05:40:22;;;;;;;2.4;2;;;;;;;13.55;90.0918;939.7458;;;;
2022/05/28 05:42:48;;;;;;;2.5;2.2;;;;;;;13.65;89.43555;939.799;;;;
2022/05/28 05:45:18;;;;;;;2.3;2.1;;;;;;;13.75;89.38574;939.8414;;;;
2022/05/28 05:47:48;;;;;;;2.5;2.2;;;;;;;13.89;89.76953;939.88;;;;
2022/05/28 05:50:13;;;;;;;2.2;2;;;;;;;14;89.12695;939.8063;;;;
2022/05/28 05:52:44;;;;;;;3.6;2.3;;;;;;;14.1;88.59473;939.7896;;;;
2022/05/28 05:55:09;;;;;;;2.6;1.8;;;;;;;14.16;86.38477;939.7567;;;;
2022/05/28 05:57:37;;;;;;;1.8;1.7;;;;;;;14.12;84.93848;939.7111;;;;
2022/05/28 06:00:02;;;;;;;2.3;1.9;;;;;;;14.13;85.91699;939.7375;;;;
2022/05/28 06:02:32;;;;;;;1.8;1.7;;;;;;;14.1;85.04883;939.6911;;;;
2022/05/28 06:05:01;;;;;;;2.5;1.9;;;;;;;14.16;85.28027;939.7182;;;;
2022/05/28 06:07:26;;;;;;;2.9;2.2;;;;;;;14.14;84.68945;939.6942;;;;
2022/05/28 06:09:53;;;;;;;2.8;1.8;;;;;;;14.31;84.44434;939.6877;;;;
2022/05/28 06:12:18;;;;;;;2;1.8;;;;;;;14.39;84.51758;939.6346;;;;
2022/05/28 06:14:43;;;;;;;1.7;1.6;;;;;;;14.41;82.92188;939.6361;;;;
2022/05/28 06:17:09;;;;;;;2.7;1.5;;;;;;;14.37;82.55566;939.6547;;;;
2022/05/28 06:19:34;;;;;;;2.5;1.8;;;;;;;14.48;84.88086;939.6229;;;;
2022/05/28 06:22:06;;;;;;;1.5;1.4;;;;;;;14.52;82.98828;939.5803;;;;
2022/05/28 06:24:34;;;;;;;1.6;1.5;;;;;;;14.56;82.22266;939.4904;;;;
2022/05/28 06:26:59;;;;;;;3.2;1.6;;;;;;;14.54;82.5752;939.468;;;;
2022/05/28 06:29:28;;;;;;;1.9;1.5;;;;;;;14.6;81.70117;939.5728;;;;
2022/05/28 06:31:58;;;;;;;2.6;1.7;;;;;;;14.64;84.84277;939.6498;;;;
2022/05/28 06:34:29;;;;;;;1.9;1.4;;;;;;;14.59;81.79004;939.6442;;;;
2022/05/28 06:36:59;;;;;;;1.5;1.4;;;;;;;14.7;83.51855;939.6312;;;;
2022/05/28 06:39:24;;;;;;;3.2;1.8;;;;;;;14.84;82.66797;939.6492;;;;
2022/05/28 06:41:53;;;;;;;2;1.8;;;;;;;14.95;81.4541;939.6583;;;;
2022/05/28 06:44:17;;;;;;;2.6;1.8;;;;;;;15;81.73926;939.6862;;;;
2022/05/28 06:46:45;;;;;;;2.3;2.1;;;;;;;14.95;82.94238;939.6752;;;;
2022/05/28 06:49:10;;;;;;;2;1.8;;;;;;;14.84;82.72559;939.7239;;;;
2022/05/28 06:51:37;;;;;;;3.9;2.4;;;;;;;14.76;83.43652;939.7087;;;;
2022/05/28 06:54:01;;;;;;;2.3;2.1;;;;;;;14.59;83.99121;939.6827;;;;
2022/05/28 06:56:28;;;;;;;2.4;2;;;;;;;14.62;83.79102;939.6243;;;;
2022/05/28 06:58:53;;;;;;;2.5;2.1;;;;;;;14.57;83.58496;939.6314;;;;
2022/05/28 07:01:20;;;;;;;3.7;2.2;;;;;;;14.35;84.33789;939.6275;;;;
2022/05/28 07:03:47;;;;;;;2.3;2.1;;;;;;;13.92;86.04883;939.5022;;;;
2022/05/28 07:06:14;;;;;;;2.1;1.9;;;;;;;14.24;85.52637;939.5725;;;;
2022/05/28 07:08:39;;;;;;;1.7;1.6;;;;;;;14.22;83.96777;939.4966;;;;
2022/05/28 07:11:07;;;;;;;2.1;1.9;;;;;;;14.12;84.29395;939.5998;;;;
2022/05/28 07:13:31;;;;;;;2.9;1.8;;;;;;;14.13;83.62598;939.5925;;;;
2022/05/28 07:15:56;;;;;;;1.8;1.7;;;;;;;14.26;83.54883;939.5469;;;;
2022/05/28 07:18:25;;;;;;;2.2;1.8;;;;;;;14.21;83.44629;939.5627;;;;
2022/05/28 07:20:50;;;;;;;1.7;1.6;;;;;;;14.23;84.2793;939.5461;;;;
2022/05/28 07:23:16;;;;;;;2;1.8;;;;;;;14.26;82.78711;939.5694;;;;
2022/05/28 07:25:41;;;;;;;3.2;2.4;;;;;;;14.18;82.79492;939.6373;;;;
2022/05/28 07:28:24;;;;;;;3;2.5;;;;;;;14.33;82.75488;939.5339;;;;
2022/05/28 07:30:31;;;;;;;2.7;2.3;;;;;;;14.38;81.94727;939.5465;;;;
2022/05/28 07:32:58;;;;;;;2.9;2.6;;;;;;;14.34;81.37402;939.4986;;;;
2022/05/28 07:35:23;;;;;;;4;2.8;;;;;;;14.16;82.4248;939.5148;;;;
2022/05/28 07:37:53;;;;;;;3.2;2.6;;;;;;;14.36;82.70215;939.5073;;;;
2022/05/28 07:40:25;;;;;;;3.9;3;;;;;;;14.38;81.16406;939.5225;;;;
2022/05/28 07:42:55;;;;;;;4.1;3;;;;;;;14.51;81.74023;939.4666;;;;
2022/05/28 07:45:20;;;;;;;5.7;2.7;;;;;;;14.4;81.96387;939.4583;;;;
2022/05/28 07:47:50;;;;;;;3.7;3.1;;;;;;;14.42;81.63086;939.4601;;;;
2022/05/28 07:50:15;;;;;;;4.5;3.4;;;;;;;14.22;82.16992;939.4253;;;;
2022/05/28 07:52:41;;;;;;;4;3.4;;;;;;;14.13;82.08594;939.4587;;;;
2022/05/28 07:55:07;;;;;;;4.4;3.8;;;;;;;13.75;83.64551;939.4821;;;;
2022/05/28 07:57:35;;;;;;;4.8;3.9;;;;;;;13.81;82.94434;939.4355;;;;
2022/05/28 08:00:00;;;;;;;5.1;3.7;;;;;;;13.78;83.38672;939.318;;;;
2022/05/28 08:02:34;;;;;;;6;4.2;;;;;;;13.75;82.875;939.4341;;;;
2022/05/28 08:05:02;;;;;;;5.3;4.4;;;;;;;13.62;83.4707;939.4102;;;;
2022/05/28 08:07:27;;;;;;;5.9;4.8;;;;;;;13.54;84.43359;939.4906;;;;
2022/05/28 08:09:55;;;;;;;5.3;4.5;;;;;;;13.37;84.5957;939.4952;;;;
2022/05/28 08:12:20;;;;;;;5.4;4.6;;;;;;;13.43;84.63086;939.4874;;;;
2022/05/28 08:14:50;;;;;;;7.7;4.7;;;;;;;13.54;84.52539;939.4891;;;;
2022/05/28 08:17:18;;;;;;;6.7;4.8;;;;;;;13.56;84.51758;939.4955;;;;
2022/05/28 08:19:47;;;;;;;7;4.3;;;;;;;13.66;83.375;939.4694;;;;
2022/05/28 08:24:37;;;;;;;5.1;3.9;;;;;;;13.54;84.91699;939.4778;;;;
2022/05/28 08:27:07;;;;;;;7;4.2;;;;;;;13.63;83.75098;939.5413;;;;
2022/05/28 08:29:32;;;;;;;5.3;3.8;;;;;;;13.74;83.54004;939.5029;;;;
2022/05/28 08:31:57;;;;;;;5.1;3.7;;;;;;;13.75;82.51855;939.5389;;;;
2022/05/28 08:34:25;;;;;;;5.3;3.6;;;;;;;13.61;81.53809;939.5203;;;;
2022/05/28 08:36:50;;;;;;;5.7;3.6;;;;;;;13.7;81.81836;939.5533;;;;
2022/05/28 08:39:17;;;;;;;6;3.4;;;;;;;13.73;81.75586;939.5469;;;;
2022/05/28 08:41:42;;;;;;;7.6;3.9;;;;;;;13.49;83.23926;939.6155;;;;
2022/05/28 08:44:11;;;;;;;5.8;4.4;;;;;;;13.28;84.00586;939.5711;;;;
2022/05/28 08:46:36;;;;;;;6;3.9;;;;;;;13.4;83.79785;939.5775;;;;
2022/05/28 08:49:01;;;;;;;5.7;3.7;;;;;;;13.44;83.11523;939.553;;;;
2022/05/28 08:51:26;;;;;;;5.1;3.8;;;;;;;13.36;82.84668;939.5726;;;;
2022/05/28 08:53:51;;;;;;;6.2;3.8;;;;;;;13.3;82.25098;939.5726;;;;
2022/05/28 08:56:16;;;;;;;6.5;3.9;;;;;;;13.25;82.84961;939.6534;;;;
2022/05/28 08:58:42;;;;;;;6.3;4.1;;;;;;;13.28;83.40625;939.5311;;;;
2022/05/28 09:01:07;;;;;;;5.6;4.5;;;;;;;13.31;83.95117;939.4951;;;;
2022/05/28 09:03:34;;;;;;;7.3;4.6;;;;;;;13.3;83.18164;939.4583;;;;
2022/05/28 09:06:00;;;;;;;5.8;4.2;;;;;;;13.47;81.21094;939.4691;;;;
2022/05/28 09:08:25;;;;;;;5.5;4.1;;;;;;;13.52;81.95801;939.4659;;;;
2022/05/28 09:10:54;;;;;;;7.4;4.2;;;;;;;13.66;80.77637;939.3989;;;;
2022/05/28 09:13:20;;;;;;;5.3;3.5;;;;;;;13.66;79.82227;939.5389;;;;
2022/05/28 09:15:45;;;;;;;4.5;3.5;;;;;;;13.84;78.18848;939.5863;;;;
2022/05/28 09:18:12;;;;;;;6.9;3.7;;;;;;;13.86;77.00488;939.5295;;;;
2022/05/28 09:20:40;;;;;;;4.5;3.4;;;;;;;13.96;76.74609;939.615;;;;
2022/05/28 09:23:05;;;;;;;5.7;3.3;;;;;;;13.93;77.59473;939.5878;;;;
2022/05/28 09:25:30;;;;;;;7.6;3.4;;;;;;;13.95;77.20508;939.5974;;;;
2022/05/28 09:27:56;;;;;;;7;3.5;;;;;;;14.05;75.92188;939.6152;;;;
2022/05/28 09:30:22;;;;;;;5.8;3.4;;;;;;;13.93;75.03809;939.6406;;;;
2022/05/28 09:32:49;;;;;;;5.3;3.5;;;;;;;13.91;75.76074;939.6534;;;;
2022/05/28 09:35:30;;;;;;;4.3;3.6;;;;;;;13.91;77.63379;939.6191;;;;
2022/05/28 09:37:59;;;;;;;4.5;3.6;;;;;;;14.04;78.72852;939.6208;;;;
2022/05/28 09:40:24;;;;;;;6.4;3.9;;;;;;;13.85;79.16602;939.6319;;;;
2022/05/28 09:43:02;;;;;;;8.2;5.7;;;;;;;13.79;80.19141;939.5852;;;;
2022/05/28 09:45:27;;;;;;;6;3.5;;;;;;;13.57;81.12793;939.6467;;;;
2022/05/28 09:47:53;;;;;;;6.8;3.7;;;;;;;13.58;79.12891;939.6506;;;;
2022/05/28 09:50:22;;;;;;;6.4;3.3;;;;;;;13.78;78.39551;939.6404;;;;
2022/05/28 09:54:19;;;;;;;4.3;3;;;;;;;14.04;75.65723;939.6016;;;;
2022/05/28 09:55:13;;;;;;;6.1;3.3;;;;;;;14.09;76.5166;939.6303;;;;
2022/05/28 09:57:38;;;;;;;6.6;3.6;;;;;;;13.92;74.89844;939.6191;;;;
2022/05/28 10:00:03;;;;;;;5.5;3.5;;;;;;;13.9;72.16895;939.5919;;;;
2022/05/28 10:02:30;;;;;;;6;3.7;;;;;;;13.89;74.6875;939.6247;;;;
2022/05/28 10:05:00;;;;;;;6.1;3.5;;;;;;;14.14;72.25488;939.6542;;;;
2022/05/28 10:07:23;;;;;;;5.2;3.2;;;;;;;14.19;71.24902;939.6533;;;;
2022/05/28 10:09:53;;;;;;;5.2;3;;;;;;;14.3;73.47852;939.6613;;;;
2022/05/28 10:12:24;;;;;;;5.1;2.9;;;;;;;14.2;76.08691;939.6412;;;;
2022/05/28 10:14:53;;;;;;;7;4.3;;;;;;;13.78;79.17578;939.6013;;;;
2022/05/28 10:17:25;;;;;;;6.8;3.9;;;;;;;13.71;80.46484;939.6094;;;;
2022/05/28 10:20:19;;;;;;;4;3.1;;;;;;;13.55;73.24902;939.6459;;;;
2022/05/28 10:22:44;;;;;;;5.6;3.2;;;;;;;13.61;74.16602;939.5691;;;;
2022/05/28 10:25:09;;;;;;;6.6;3.4;;;;;;;13.72;76.15332;939.5101;;;;
2022/05/28 10:27:37;;;;;;;7;3.5;;;;;;;13.9;76.18262;939.4942;;;;
2022/05/28 10:30:02;;;;;;;6;3.2;;;;;;;14.02;73.30469;939.4662;;;;
2022/05/28 10:32:32;;;;;;;5.4;3.5;;;;;;;14.02;75.06543;939.5151;;;;
2022/05/28 10:35:00;;;;;;;5.4;3.5;;;;;;;13.93;72.31152;939.4813;;;;
2022/05/28 10:37:25;;;;;;;5.9;3.6;;;;;;;13.99;77.99609;939.5661;;;;
2022/05/28 10:39:55;;;;;;;6.1;3.5;;;;;;;13.78;77.23242;939.5436;;;;
2022/05/28 10:42:20;;;;;;;7.4;3.1;;;;;;;13.93;76.45508;939.4981;;;;
2022/05/28 10:44:45;;;;;;;6.6;3.1;;;;;;;13.93;75.7041;939.5438;;;;
2022/05/28 10:47:10;;;;;;;5.8;3.6;;;;;;;14.11;74.82813;939.4517;;;;
2022/05/28 10:49:36;;;;;;;5.5;3;;;;;;;14.2;73.97949;939.4827;;;;
2022/05/28 10:52:01;;;;;;;4.9;3.4;;;;;;;14.21;72.16211;939.4978;;;;
2022/05/28 10:54:26;;;;;;;5.7;3.1;;;;;;;14.22;73.30371;939.442;;;;
2022/05/28 10:56:52;;;;;;;7;3.7;;;;;;;14.2;77.60645;939.4314;;;;
2022/05/28 10:59:17;;;;;;;6.3;3.8;;;;;;;14.01;78.17188;939.3915;;;;
2022/05/28 11:01:44;;;;;;;7.6;4;;;;;;;13.79;77.92383;939.3539;;;;
2022/05/28 11:05:01;;;;;;;7.6;4;;;;;;;13.8;75.53418;939.3812;;;;
2022/05/28 11:07:26;;;;;;;5.8;4;;;;;;;13.8;76.79785;939.3219;;;;
2022/05/28 11:09:55;;;;;;;5.7;3.6;;;;;;;14.12;75.6123;939.3636;;;;
2022/05/28 11:12:17;;;;;;;5.6;3.1;;;;;;;14.43;74.50293;939.3699;;;;
2022/05/28 11:14:42;;;;;;;6.9;3.8;;;;;;;14.74;72.04297;939.3616;;;;
2022/05/28 11:17:07;;;;;;;6.4;3.5;;;;;;;14.68;69.27734;939.3331;;;;
2022/05/28 11:19:32;;;;;;;7.2;3.4;;;;;;;14.82;70.36133;939.3527;;;;
2022/05/28 11:21:57;;;;;;;7.7;4;;;;;;;14.8;70.4834;939.3301;;;;
2022/05/28 11:24:22;;;;;;;10;3.9;;;;;;;14.64;69.03906;939.3189;;;;
2022/05/28 11:26:49;;;;;;;5.8;3.6;;;;;;;14.58;71.69336;939.3469;;;;
2022/05/28 11:29:14;;;;;;;5.8;3.5;;;;;;;14.58;71.2666;939.3028;;;;
2022/05/28 11:31:41;;;;;;;7.2;3.6;;;;;;;14.7;70.70898;939.2344;;;;
2022/05/28 11:34:05;;;;;;;5;3.3;;;;;;;14.66;71.06055;939.2346;;;;
2022/05/28 11:36:30;;;;;;;4.9;3.3;;;;;;;14.78;68.71777;939.2131;;;;
2022/05/28 11:38:55;;;;;;;5.6;3.3;;;;;;;14.86;69.375;939.1978;;;;
2022/05/28 11:41:20;;;;;;;5.5;3.2;;;;;;;14.65;69.42285;939.1505;;;;
2022/05/28 11:43:45;;;;;;;5;3.3;;;;;;;14.82;69.33496;939.1042;;;;
2022/05/28 11:46:11;;;;;;;6.4;3.1;;;;;;;14.94;68.56934;939.1212;;;;
2022/05/28 11:51:27;;;;;;;7.3;3.6;;;;;;;14.93;67.99121;939.053;;;;
2022/05/28 11:53:26;;;;;;;6.2;3.1;;;;;;;14.89;68.99902;938.9924;;;;
2022/05/28 11:55:51;;;;;;;6.1;3.1;;;;;;;14.87;67.66992;938.9612;;;;
2022/05/28 11:58:17;;;;;;;5.5;3.1;;;;;;;14.91;67.15723;938.9448;;;;
2022/05/28 12:00:45;;;;;;;6.5;3.3;;;;;;;15.08;68.36133;938.8599;;;;
2022/05/28 12:03:10;;;;;;;7.2;3.2;;;;;;;15.15;68.24512;938.9292;;;;
2022/05/28 12:05:40;;;;;;;5.4;3.1;;;;;;;14.94;68.85742;938.798;;;;
2022/05/28 12:08:18;;;;;;;7.9;3.4;;;;;;;14.75;69.38086;938.8791;;;;
2022/05/28 12:10:46;;;;;;;7.2;3.9;;;;;;;14.75;68.82715;938.8342;;;;
2022/05/28 12:13:11;;;;;;;4.9;3.1;;;;;;;14.84;69.2334;938.7056;;;;
2022/05/28 12:15:41;;;;;;;7.1;3.6;;;;;;;14.73;69.57422;938.7461;;;;
2022/05/28 12:18:10;;;;;;;5.7;3.1;;;;;;;14.74;68.3291;938.7236;;;;
2022/05/28 12:20:44;;;;;;;7.1;3.1;;;;;;;14.83;68.3916;938.6408;;;;
2022/05/28 12:23:10;;;;;;;7.9;3.4;;;;;;;14.72;69.20215;938.6532;;;;
2022/05/28 12:25:35;;;;;;;4.5;3.1;;;;;;;14.84;68.08105;938.6343;;;;
2022/05/28 12:28:07;;;;;;;6.2;3.9;;;;;;;14.55;69.00391;938.6378;;;;
2022/05/28 12:30:25;;;;;;;6.5;3.6;;;;;;;14.59;68.79004;938.5726;;;;
2022/05/28 12:32:59;;;;;;;6.4;3.6;;;;;;;14.66;68.2832;938.5614;;;;
2022/05/28 12:35:24;;;;;;;6.8;3.5;;;;;;;14.68;68.40234;938.5709;;;;
2022/05/28 12:37:51;;;;;;;5.3;3.1;;;;;;;14.76;68.02148;938.495;;;;
2022/05/28 12:40:16;;;;;;;6.1;3.2;;;;;;;14.88;67.74023;938.4625;;;;
2022/05/28 12:42:45;;;;;;;6.6;3.1;;;;;;;14.91;66.01563;938.443;;;;
2022/05/28 12:45:17;;;;;;;6.3;3.5;;;;;;;15.12;65.19336;938.38;;;;
2022/05/28 12:47:43;;;;;;;5.2;3.1;;;;;;;15.16;64.05664;938.4391;;;;
2022/05/28 12:50:08;;;;;;;7.1;3.4;;;;;;;15.28;63.78613;938.3308;;;;
2022/05/28 12:52:35;;;;;;;6.6;3.3;;;;;;;15.55;63.61816;938.3183;;;;
2022/05/28 12:55:00;;;;;;;7.3;3.6;;;;;;;15.81;63.15918;938.2776;;;;
2022/05/28 12:57:26;;;;;;;5.9;2.9;;;;;;;15.97;63.10059;938.2095;;;;
2022/05/28 12:59:51;;;;;;;6;3;;;;;;;15.96;63.39941;938.204;;;;
2022/05/28 13:02:19;;;;;;;6.1;2.8;;;;;;;16.09;61.25488;938.149;;;;
2022/05/28 13:04:46;;;;;;;6.2;3.2;;;;;;;15.32;62.91406;938.1291;;;;
2022/05/28 13:07:11;;;;;;;5.8;2.9;;;;;;;15.62;62.11426;938.0485;;;;
2022/05/28 13:09:38;;;;;;;5.6;3;;;;;;;15.52;62.45898;938.1219;;;;
2022/05/28 13:12:03;;;;;;;5.8;3;;;;;;;15.51;62.52734;938.1131;;;;
2022/05/28 13:14:31;;;;;;;4;2.6;;;;;;;15.58;62.46582;938.0644;;;;
2022/05/28 13:16:55;;;;;;;5.5;2.5;;;;;;;15.63;63.70898;938.0998;;;;
2022/05/28 13:19:21;;;;;;;4;2.5;;;;;;;15.35;61.71777;937.9989;;;;
2022/05/28 13:21:46;;;;;;;7.4;2.7;;;;;;;15.3;62.51758;938.0074;;;;
2022/05/28 13:24:13;;;;;;;6.3;2.6;;;;;;;15.48;61.82813;937.9417;;;;
2022/05/28 13:26:41;;;;;;;5.1;2.4;;;;;;;15.56;61.19238;937.9522;;;;
2022/05/28 13:29:07;;;;;;;5.6;2.8;;;;;;;15.48;61.25195;937.9473;;;;
2022/05/28 13:31:32;;;;;;;4.7;2.4;;;;;;;15.36;61.53516;937.8945;;;;
2022/05/28 13:33:57;;;;;;;5.7;2.6;;;;;;;15.4;61.4707;937.8226;;;;
2022/05/28 13:36:24;;;;;;;4.2;2.6;;;;;;;15.38;61.75586;937.7756;;;;
2022/05/28 13:38:49;;;;;;;5.3;2.4;;;;;;;15.47;61.25;937.8535;;;;
2022/05/28 13:41:18;;;;;;;7;2.9;;;;;;;15.63;61.79297;937.7794;;;;
2022/05/28 13:43:46;;;;;;;7.6;2.8;;;;;;;15.81;60.67383;937.7252;;;;
2022/05/28 13:46:11;;;;;;;4.4;2.6;;;;;;;15.81;59.40137;937.7197;;;;
2022/05/28 13:48:38;;;;;;;6;2.2;;;;;;;15.97;59.80664;937.7067;;;;
2022/05/28 13:51:02;;;;;;;4.6;2.8;;;;;;;15.97;59.81836;937.7213;;;;
2022/05/28 13:53:29;;;;;;;6.1;2.6;;;;;;;15.79;59.87305;937.7094;;;;
2022/05/28 13:55:54;;;;;;;7;3.2;;;;;;;15.63;60.70605;937.6831;;;;
2022/05/28 13:58:20;;;;;;;6.2;3.1;;;;;;;15.58;60.36426;937.6477;;;;
2022/05/28 14:00:48;;;;;;;4.7;2.4;;;;;;;15.71;60.28906;937.5875;;;;
2022/05/28 14:03:21;;;;;;;6.1;2.6;;;;;;;15.74;60.22559;937.5734;;;;
2022/05/28 14:06:16;;;;;;;5.2;2.6;;;;;;;15.96;59.85059;937.56;;;;
2022/05/28 14:08:32;;;;;;;5.7;2.7;;;;;;;15.76;60.41113;937.4922;;;;
2022/05/28 14:10:57;;;;;;;4.9;2.5;;;;;;;15.93;60.4248;937.5322;;;;
2022/05/28 14:13:22;;;;;;;5.1;2.5;;;;;;;15.98;61.62207;937.5806;;;;
2022/05/28 14:15:48;;;;;;;6.2;2.9;;;;;;;16.06;59.93359;937.5413;;;;
2022/05/28 14:18:13;;;;;;;6.9;3.6;;;;;;;15.89;58.98535;937.5022;;;;
2022/05/28 14:20:39;;;;;;;6;3.2;;;;;;;15.96;58.60156;937.4572;;;;
2022/05/28 14:23:04;;;;;;;5.7;2.9;;;;;;;16.02;62.22852;937.4476;;;;
2022/05/28 14:25:32;;;;;;;6.6;2.9;;;;;;;15.73;63.2041;937.3769;;;;
2022/05/28 14:27:57;;;;;;;4.5;2.7;;;;;;;15.65;60.97559;937.4004;;;;
2022/05/28 14:30:24;;;;;;;4.2;2.5;;;;;;;15.57;61.76074;937.3942;;;;
2022/05/28 14:32:52;;;;;;;6.3;2.5;;;;;;;15.7;60.72754;937.3107;;;;
2022/05/28 14:35:17;;;;;;;5.9;3.1;;;;;;;15.66;60.05078;937.3738;;;;
2022/05/28 14:37:47;;;;;;;4.5;2.5;;;;;;;15.8;59.67773;937.3384;;;;
2022/05/28 14:40:12;;;;;;;4.8;2.8;;;;;;;15.91;59.6582;937.3301;;;;
2022/05/28 14:42:43;;;;;;;7.6;2.9;;;;;;;15.9;60.44238;937.3463;;;;
2022/05/28 14:45:06;;;;;;;7.7;3.1;;;;;;;15.85;60.08984;937.3324;;;;
2022/05/28 14:47:32;;;;;;;6.5;2.9;;;;;;;16.13;58.34766;937.2745;;;;
2022/05/28 14:49:57;;;;;;;4.7;2.4;;;;;;;16.18;58.27344;937.2184;;;;
2022/05/28 14:52:22;;;;;;;4.1;2.4;;;;;;;16.17;60.0752;937.2483;;;;
2022/05/28 14:54:47;;;;;;;6.4;2.8;;;;;;;16.32;58.10645;937.24;;;;
2022/05/28 14:57:12;;;;;;;6.3;2.8;;;;;;;16.46;57.51172;937.1603;;;;
2022/05/28 14:59:42;;;;;;;4.8;2.5;;;;;;;15.98;57.85352;937.1967;;;;
2022/05/28 15:02:07;;;;;;;5.6;2.6;;;;;;;16.14;60.41895;937.149;;;;
2022/05/28 15:04:34;;;;;;;5.1;2.4;;;;;;;16.28;58.40137;937.137;;;;
2022/05/28 15:07:05;;;;;;;4.5;2.5;;;;;;;16.18;57.02344;937.1484;;;;
2022/05/28 15:09:32;;;;;;;7.3;2.7;;;;;;;16.35;55.98242;937.0603;;;;
2022/05/28 15:11:57;;;;;;;4.4;2.5;;;;;;;16.32;57.3877;937.056;;;;
2022/05/28 15:14:24;;;;;;;4.2;2.4;;;;;;;16.27;58.37695;937.1283;;;;
2022/05/28 15:17:28;;;;;;;5.4;2.4;;;;;;;16.27;56.61816;936.9933;;;;
2022/05/28 15:19:30;;;;;;;7;2.5;;;;;;;15.85;57.84766;937.1164;;;;
2022/05/28 15:21:58;;;;;;;4.1;2.3;;;;;;;15.99;57.06738;937.1026;;;;
2022/05/28 15:24:23;;;;;;;4.2;2.3;;;;;;;15.9;57.29883;937.0106;;;;
2022/05/28 15:26:53;;;;;;;2.7;2;;;;;;;15.83;58.26172;937.0396;;;;
2022/05/28 15:29:18;;;;;;;2.9;1.9;;;;;;;15.73;58.14453;936.9442;;;;
2022/05/28 15:31:44;;;;;;;4.5;2.4;;;;;;;15.74;57.82129;936.9794;;;;
2022/05/28 15:34:09;;;;;;;4.4;2;;;;;;;15.72;57.41504;936.962;;;;
2022/05/28 15:39:00;;;;;;;3.9;1.9;;;;;;;15.44;58.90234;936.9528;;;;
2022/05/28 15:41:28;;;;;;;3.8;2;;;;;;;15.53;57.97754;936.9436;;;;
2022/05/28 15:43:53;;;;;;;4;2;;;;;;;15.54;58.15332;936.8945;;;;